Time;durP1;ratioP1;P1;durP2;ratioP2;P2;SDS_P1;SDS_P2;PMS_P1;PMS_P2;Temp;Humidity;BMP_temperature;BMP_pressure;BME280_temperature;BME280_humidity;BME280_pressure;Samples;Min_cycle;Max_cycle;Signal;HPM_P1;HPM_P2
2023/05/27 00:02:24;;;;;;;15.30;4.80;;;12.30;64.70;;;;;;5061671;28;20119;-79
2023/05/27 00:04:50;;;;;;;13.77;4.40;;;12.20;64.90;;;;;;5079726;28;20017;-80
2023/05/27 00:07:15;;;;;;;16.35;5.57;;;12.20;65.00;;;;;;5061598;28;20131;-79
2023/05/27 00:09:41;;;;;;;12.70;4.40;;;12.20;65.20;;;;;;5061669;28;20028;-80
2023/05/27 00:12:06;;;;;;;20.08;6.35;;;12.10;65.50;;;;;;5079576;28;20025;-79
2023/05/27 00:14:32;;;;;;;10.52;4.10;;;12.10;65.70;;;;;;5061553;28;20485;-79
2023/05/27 00:16:57;;;;;;;13.75;5.07;;;12.00;65.80;;;;;;5061596;28;20512;-80
2023/05/27 00:19:26;;;;;;;12.07;5.15;;;12.10;66.00;;;;;;5079472;28;20013;-79
2023/05/27 00:21:52;;;;;;;19.20;6.78;;;12.00;66.10;;;;;;5061405;28;20024;-80
2023/05/27 00:24:18;;;;;;;14.07;4.70;;;11.90;66.50;;;;;;5079563;28;20347;-79
2023/05/27 00:26:44;;;;;;;13.25;4.60;;;11.90;67.00;;;;;;5079453;28;20157;-79
2023/05/27 00:29:09;;;;;;;12.27;5.28;;;11.80;67.20;;;;;;5079498;28;20036;-80
2023/05/27 00:31:35;;;;;;;13.85;4.85;;;11.80;67.50;;;;;;5079431;28;20048;-79
2023/05/27 00:34:01;;;;;;;11.00;4.70;;;11.70;68.10;;;;;;5061433;28;20021;-79
2023/05/27 00:36:26;;;;;;;17.27;6.65;;;11.60;68.50;;;;;;5061357;28;20024;-79
2023/05/27 00:38:52;;;;;;;14.02;4.53;;;11.60;68.90;;;;;;5079406;28;20024;-79
2023/05/27 00:41:18;;;;;;;15.88;5.15;;;11.50;69.40;;;;;;5061368;28;20477;-79
2023/05/27 00:43:44;;;;;;;15.10;4.78;;;11.40;69.90;;;;;;5061436;28;20025;-79
2023/05/27 00:46:10;;;;;;;15.57;5.30;;;11.40;70.20;;;;;;5079279;28;20036;-80
2023/05/27 00:48:36;;;;;;;15.80;4.88;;;11.40;70.60;;;;;;5079287;28;20024;-79
2023/05/27 00:51:01;;;;;;;13.88;5.70;;;11.30;71.10;;;;;;5079273;28;20032;-79
2023/05/27 00:53:27;;;;;;;8.55;4.80;;;11.30;71.50;;;;;;5061289;28;20021;-79
2023/05/27 00:55:55;;;;;;;17.90;5.70;;;11.20;71.80;;;;;;5061203;28;20082;-80
2023/05/27 00:58:21;;;;;;;15.10;5.07;;;11.20;72.20;;;;;;5061048;28;20055;-80
2023/05/27 01:00:47;;;;;;;14.00;5.25;;;11.10;72.90;;;;;;5076725;28;20028;-80
2023/05/27 01:03:15;;;;;;;15.68;4.53;;;11.10;73.30;;;;;;5058009;28;20059;-80
2023/05/27 01:05:40;;;;;;;18.67;5.53;;;11.10;73.50;;;;;;5057862;28;20024;-79
2023/05/27 01:08:29;;;;;;;14.27;4.93;;;11.00;73.70;;;;;;5075647;28;20048;-80
2023/05/27 01:10:56;;;;;;;14.93;6.28;;;11.00;74.00;;;;;;5057931;28;20025;-80
2023/05/27 01:13:40;;;;;;;14.05;4.65;;;10.90;74.20;;;;;;5057789;28;20039;-79
2023/05/27 01:16:14;;;;;;;11.43;5.45;;;10.90;74.70;;;;;;5057823;28;20024;-79
2023/05/27 01:18:46;;;;;;;12.32;4.32;;;10.80;75.30;;;;;;5057834;28;20020;-79
2023/05/27 01:21:14;;;;;;;14.77;5.13;;;10.80;75.90;;;;;;5057656;28;20052;-79
2023/05/27 01:23:44;;;;;;;11.07;4.75;;;10.70;76.50;;;;;;5075613;28;20044;-79
2023/05/27 01:26:10;;;;;;;18.92;4.90;;;10.70;76.70;;;;;;5075574;28;20056;-80
2023/05/27 01:28:36;;;;;;;11.70;4.88;;;10.70;77.20;;;;;;5075496;28;20059;-79
2023/05/27 01:31:15;;;;;;;11.13;5.13;;;10.60;77.60;;;;;;5057586;28;20024;-79
2023/05/27 01:33:45;;;;;;;12.18;5.70;;;10.50;79.00;;;;;;5057506;28;20020;-80
2023/05/27 01:36:17;;;;;;;15.00;5.32;;;10.50;79.60;;;;;;5075392;28;20466;-79
2023/05/27 01:38:45;;;;;;;11.68;5.30;;;10.40;80.30;;;;;;5057443;28;20131;-79
2023/05/27 01:41:11;;;;;;;13.02;5.93;;;10.40;81.80;;;;;;5075364;28;20017;-79
2023/05/27 01:43:38;;;;;;;11.65;5.10;;;10.30;81.50;;;;;;5057277;28;20029;-79
2023/05/27 01:46:04;;;;;;;16.52;5.05;;;10.30;81.80;;;;;;5057188;28;20029;-80
2023/05/27 01:48:30;;;;;;;15.70;5.97;;;10.20;81.90;;;;;;5057192;28;20021;-80
2023/05/27 01:50:56;;;;;;;11.32;5.57;;;10.30;81.90;;;;;;5075158;28;20021;-79
2023/05/27 01:53:21;;;;;;;11.82;5.40;;;10.20;82.00;;;;;;5075041;28;20023;-80
2023/05/27 01:55:47;;;;;;;21.10;5.38;;;10.20;82.30;;;;;;5075088;28;20032;-79
2023/05/27 01:58:12;;;;;;;13.27;5.72;;;10.10;83.30;;;;;;5074673;28;20130;-79
2023/05/27 02:00:38;;;;;;;18.23;5.80;;;9.90;85.80;;;;;;5074910;28;20045;-79
2023/05/27 02:03:03;;;;;;;18.10;5.72;;;9.80;86.50;;;;;;5056805;28;20017;-80
2023/05/27 02:05:29;;;;;;;11.27;4.78;;;9.70;87.80;;;;;;5056740;28;20064;-80
2023/05/27 02:07:55;;;;;;;12.95;5.65;;;9.60;89.40;;;;;;5064316;28;20541;-80
2023/05/27 02:10:21;;;;;;;9.10;5.05;;;9.50;90.80;;;;;;5095084;28;20358;-79
2023/05/27 02:12:47;;;;;;;14.10;5.53;;;9.50;91.90;;;;;;5094669;28;20020;-79
2023/05/27 02:15:13;;;;;;;12.30;5.10;;;9.50;93.20;;;;;;5076806;28;20048;-80
2023/05/27 02:17:39;;;;;;;12.48;5.85;;;9.40;93.30;;;;;;5076588;28;20044;-79
2023/05/27 02:20:05;;;;;;;14.52;6.00;;;9.40;93.70;;;;;;5076668;28;20028;-80
2023/05/27 02:22:30;;;;;;;15.15;5.75;;;9.40;94.60;;;;;;5094695;28;20024;-79
2023/05/27 02:24:56;;;;;;;11.57;5.63;;;9.30;96.10;;;;;;5076451;28;20027;-79
2023/05/27 02:27:22;;;;;;;10.10;6.18;;;9.20;96.80;;;;;;5076474;28;20424;-79
2023/05/27 02:29:47;;;;;;;14.45;6.78;;;9.20;96.90;;;;;;5076440;28;20039;-79
2023/05/27 02:32:13;;;;;;;8.68;5.00;;;9.20;98.50;;;;;;5076302;28;20381;-78
2023/05/27 02:34:40;;;;;;;11.88;5.55;;;9.10;98.90;;;;;;5094496;28;20134;-79
2023/05/27 02:37:06;;;;;;;11.45;5.40;;;9.10;99.90;;;;;;5094446;28;20107;-79
2023/05/27 02:39:33;;;;;;;10.98;4.78;;;9.00;99.90;;;;;;5094268;28;20094;-80
2023/05/27 02:41:58;;;;;;;12.85;5.70;;;9.10;99.90;;;;;;5094178;28;20461;-79
2023/05/27 02:44:24;;;;;;;14.88;5.50;;;9.10;99.90;;;;;;5076044;28;20020;-80
2023/05/27 02:46:50;;;;;;;14.32;5.70;;;9.10;99.90;;;;;;5076020;28;20073;-79
2023/05/27 02:49:16;;;;;;;19.23;5.63;;;9.10;99.90;;;;;;5076073;28;20063;-79
2023/05/27 02:51:42;;;;;;;17.15;5.47;;;9.10;99.90;;;;;;5076273;28;20456;-79
2023/05/27 02:54:08;;;;;;;14.38;4.63;;;9.10;99.90;;;;;;5094101;28;20060;-80
2023/05/27 02:56:33;;;;;;;16.60;6.97;;;9.10;99.90;;;;;;5075917;28;20043;-79
2023/05/27 02:58:59;;;;;;;13.80;5.22;;;9.10;99.90;;;;;;5075897;28;20012;-79
2023/05/27 03:01:24;;;;;;;15.18;4.95;;;9.10;99.90;;;;;;5075781;28;20013;-79
2023/05/27 03:03:50;;;;;;;16.33;6.22;;;9.10;99.90;;;;;;5094037;28;20012;-79
2023/05/27 03:06:15;;;;;;;13.00;5.90;;;9.10;99.90;;;;;;5093774;28;20032;-79
2023/05/27 03:08:41;;;;;;;19.05;5.43;;;9.10;99.90;;;;;;5093849;28;20040;-79
2023/05/27 03:11:07;;;;;;;14.40;5.95;;;9.00;99.90;;;;;;5075750;28;20027;-79
2023/05/27 03:13:32;;;;;;;15.07;5.95;;;9.00;99.90;;;;;;5075732;28;20024;-79
2023/05/27 03:15:58;;;;;;;15.63;5.40;;;9.00;99.90;;;;;;5093779;28;20020;-79
2023/05/27 03:18:24;;;;;;;16.17;6.10;;;9.00;99.90;;;;;;5075361;28;20043;-79
2023/05/27 03:20:50;;;;;;;16.63;4.95;;;9.00;99.90;;;;;;5075585;28;20020;-79
2023/05/27 03:23:16;;;;;;;16.48;4.40;;;9.00;99.90;;;;;;5075161;28;20024;-79
2023/05/27 03:25:42;;;;;;;15.85;5.53;;;9.00;99.90;;;;;;5093266;28;20150;-79
2023/05/27 03:28:07;;;;;;;15.77;5.40;;;9.10;99.90;;;;;;5075490;28;20027;-80
2023/05/27 03:30:33;;;;;;;17.60;5.78;;;9.10;99.90;;;;;;5075469;28;20020;-79
2023/05/27 03:32:58;;;;;;;15.77;5.40;;;9.10;99.90;;;;;;5093651;28;20613;-79
2023/05/27 03:35:24;;;;;;;11.45;5.28;;;9.20;99.90;;;;;;5093655;28;20020;-79
2023/05/27 03:37:50;;;;;;;12.07;4.97;;;9.30;99.90;;;;;;5075336;28;20411;-79
2023/05/27 03:40:15;;;;;;;15.18;5.50;;;9.20;99.90;;;;;;5075948;28;20016;-79
2023/05/27 03:42:41;;;;;;;14.18;5.47;;;9.20;99.90;;;;;;5093417;28;20055;-79
2023/05/27 03:45:07;;;;;;;18.75;6.13;;;9.20;99.90;;;;;;5093352;28;20072;-79
2023/05/27 03:47:34;;;;;;;12.40;4.18;;;9.10;99.90;;;;;;5075257;28;20062;-79
2023/05/27 03:50:00;;;;;;;15.27;4.20;;;9.10;99.90;;;;;;5075467;28;20031;-79
2023/05/27 03:52:26;;;;;;;11.27;4.82;;;9.10;99.90;;;;;;5093414;28;20020;-80
2023/05/27 03:54:51;;;;;;;13.45;5.30;;;9.10;99.90;;;;;;5093151;28;20024;-80
2023/05/27 03:57:17;;;;;;;13.75;4.97;;;9.20;99.90;;;;;;5075223;28;20103;-80
2023/05/27 03:59:43;;;;;;;17.08;5.25;;;9.20;99.90;;;;;;5093183;28;20031;-80
2023/05/27 04:02:08;;;;;;;17.17;4.82;;;9.30;99.90;;;;;;5075105;28;20081;-79
2023/05/27 04:04:34;;;;;;;18.05;5.30;;;9.30;99.90;;;;;;5092839;28;20096;-80
2023/05/27 04:07:01;;;;;;;12.68;5.30;;;9.30;99.90;;;;;;5074773;28;20206;-80
2023/05/27 04:09:26;;;;;;;11.07;4.63;;;9.40;99.90;;;;;;5093126;28;20427;-80
2023/05/27 04:11:52;;;;;;;11.27;4.85;;;9.50;99.40;;;;;;5093121;28;20091;-80
2023/05/27 04:14:17;;;;;;;15.18;4.97;;;9.60;97.60;;;;;;5093187;28;20165;-80
2023/05/27 04:16:43;;;;;;;13.85;5.95;;;9.70;96.90;;;;;;5092999;28;20091;-81
2023/05/27 04:19:09;;;;;;;19.95;5.13;;;9.70;97.40;;;;;;5074975;28;20024;-81
2023/05/27 04:21:35;;;;;;;6.22;3.97;;;9.80;95.80;;;;;;5092434;28;20035;-79
2023/05/27 04:24:02;;;;;;;16.55;6.13;;;9.90;95.50;;;;;;5074871;28;20048;-80
2023/05/27 04:26:28;;;;;;;11.07;5.18;;;9.90;95.00;;;;;;5074743;28;20047;-80
2023/05/27 04:28:53;;;;;;;14.13;4.70;;;9.70;95.10;;;;;;5074837;28;20111;-81
2023/05/27 04:31:19;;;;;;;14.18;4.55;;;9.90;94.70;;;;;;5074906;28;20056;-80
2023/05/27 04:33:45;;;;;;;10.07;4.57;;;9.90;94.10;;;;;;5074759;28;20020;-80
2023/05/27 04:36:11;;;;;;;13.88;4.88;;;10.00;93.20;;;;;;5075474;28;20031;-81
2023/05/27 04:38:36;;;;;;;19.08;5.15;;;10.10;92.80;;;;;;5078342;28;20059;-80
2023/05/27 04:41:03;;;;;;;17.17;5.32;;;10.10;93.10;;;;;;5078344;28;20020;-81
2023/05/27 04:43:29;;;;;;;12.40;4.68;;;10.20;91.20;;;;;;5096425;28;20020;-80
2023/05/27 04:46:06;;;;;;;16.98;5.57;;;10.20;90.20;;;;;;5096416;28;20465;-81
2023/05/27 04:48:31;;;;;;;15.68;4.85;;;10.30;89.90;;;;;;5078410;28;20050;-80
2023/05/27 04:50:57;;;;;;;13.15;4.38;;;10.50;88.60;;;;;;5078560;28;20027;-80
2023/05/27 04:53:23;;;;;;;14.75;5.10;;;10.50;87.20;;;;;;5096469;28;20458;-80
2023/05/27 04:55:49;;;;;;;14.73;4.50;;;10.50;86.70;;;;;;5061557;28;20024;-80
2023/05/27 04:58:15;;;;;;;12.88;5.43;;;10.50;86.30;;;;;;5077768;28;20043;-80
2023/05/27 05:00:49;;;;;;;18.33;6.45;;;10.60;87.00;;;;;;5096144;28;20127;-80
2023/05/27 05:03:22;;;;;;;15.95;6.82;;;10.60;86.80;;;;;;5072050;28;20016;-80
2023/05/27 05:05:51;;;;;;;13.52;5.55;;;10.80;86.70;;;;;;5086981;28;20020;-81
2023/05/27 05:08:18;;;;;;;24.10;5.95;;;10.80;85.60;;;;;;5060640;28;20043;-80
2023/05/27 05:10:45;;;;;;;13.50;4.63;;;11.10;85.00;;;;;;5055204;28;20059;-80
2023/05/27 05:13:11;;;;;;;15.88;5.20;;;11.10;84.40;;;;;;5050620;28;20032;-80
2023/05/27 05:15:37;;;;;;;14.10;5.25;;;11.30;83.50;;;;;;5075920;28;20377;-80
2023/05/27 05:18:03;;;;;;;9.40;4.03;;;11.50;81.60;;;;;;5075570;28;20036;-80
2023/05/27 05:20:28;;;;;;;10.63;4.53;;;11.50;79.50;;;;;;5075695;28;20021;-81
2023/05/27 05:22:55;;;;;;;16.98;4.20;;;11.30;78.60;;;;;;5040866;28;20478;-80
2023/05/27 05:25:21;;;;;;;17.15;4.47;;;11.30;78.00;;;;;;5074754;28;20124;-80
2023/05/27 05:27:47;;;;;;;11.65;4.55;;;11.20;79.10;;;;;;5056708;28;20104;-80
2023/05/27 05:30:12;;;;;;;11.57;3.90;;;11.30;78.10;;;;;;5075043;28;20099;-80
2023/05/27 05:32:38;;;;;;;16.20;5.45;;;11.40;79.00;;;;;;5049151;28;20020;-80
2023/05/27 05:35:04;;;;;;;12.52;4.72;;;11.40;79.30;;;;;;5057368;28;20040;-80
2023/05/27 05:37:29;;;;;;;15.70;4.45;;;11.50;78.80;;;;;;5052857;28;20524;-80
2023/05/27 05:39:58;;;;;;;17.65;5.72;;;11.60;78.50;;;;;;5047718;28;20107;-80
2023/05/27 05:42:24;;;;;;;13.60;4.90;;;11.60;77.70;;;;;;5057179;28;20013;-80
2023/05/27 05:44:52;;;;;;;13.85;5.07;;;11.70;77.50;;;;;;5057014;28;20107;-80
2023/05/27 05:47:17;;;;;;;19.05;4.30;;;11.70;78.60;;;;;;5056259;28;20025;-80
2023/05/27 05:49:43;;;;;;;10.98;4.35;;;11.90;78.90;;;;;;5074305;28;20031;-80
2023/05/27 05:52:08;;;;;;;11.05;4.13;;;11.90;77.50;;;;;;5041034;28;20032;-80
2023/05/27 05:54:34;;;;;;;12.82;4.43;;;12.10;77.10;;;;;;5053016;28;20082;-80
2023/05/27 05:57:00;;;;;;;13.77;4.80;;;12.20;76.90;;;;;;5071869;28;20028;-80
2023/05/27 05:59:26;;;;;;;10.32;4.10;;;12.20;74.30;;;;;;5074491;28;20028;-80
2023/05/27 06:01:52;;;;;;;10.20;3.80;;;12.30;74.00;;;;;;5049336;28;20069;-80
2023/05/27 06:04:17;;;;;;;10.18;3.72;;;12.40;73.20;;;;;;5074763;28;20462;-80
2023/05/27 06:06:43;;;;;;;11.70;4.72;;;12.50;73.10;;;;;;5074055;28;20043;-80
2023/05/27 06:09:09;;;;;;;10.80;3.80;;;12.50;72.60;;;;;;5070761;28;20055;-81
2023/05/27 06:11:34;;;;;;;13.40;4.07;;;12.50;71.90;;;;;;5076718;28;20035;-80
2023/05/27 06:14:00;;;;;;;13.38;4.25;;;12.80;72.30;;;;;;5076923;28;20461;-79
2023/05/27 06:16:25;;;;;;;15.68;4.68;;;12.90;71.20;;;;;;5076820;28;20432;-81
2023/05/27 06:18:51;;;;;;;13.57;4.38;;;13.00;70.80;;;;;;5076256;28;20439;-80
2023/05/27 06:21:17;;;;;;;11.23;4.75;;;13.10;70.80;;;;;;5093712;28;20024;-80
2023/05/27 06:23:43;;;;;;;14.40;4.50;;;12.90;69.90;;;;;;5076307;28;20046;-80
2023/05/27 06:26:09;;;;;;;11.68;3.63;;;13.20;70.20;;;;;;5076346;28;20494;-80
2023/05/27 06:28:34;;;;;;;11.98;3.60;;;13.20;69.00;;;;;;5076153;28;20107;-80
2023/05/27 06:31:00;;;;;;;13.38;4.25;;;13.10;67.00;;;;;;5094427;28;20473;-81
2023/05/27 06:33:25;;;;;;;14.02;4.20;;;13.30;66.50;;;;;;5076186;28;20027;-81
2023/05/27 06:35:51;;;;;;;12.98;4.68;;;13.60;67.00;;;;;;5094160;28;20020;-81
2023/05/27 06:38:17;;;;;;;14.52;3.58;;;13.70;66.60;;;;;;5094276;28;20385;-81
2023/05/27 06:40:42;;;;;;;11.73;3.78;;;13.80;66.10;;;;;;5075970;28;20382;-81
2023/05/27 06:43:08;;;;;;;8.45;3.45;;;13.80;63.20;;;;;;5076152;28;20103;-80
2023/05/27 06:45:33;;;;;;;6.72;3.67;;;13.90;64.60;;;;;;5075732;28;20531;-80
2023/05/27 06:47:59;;;;;;;14.77;3.58;;;14.10;63.90;;;;;;5075779;28;20016;-80
2023/05/27 06:50:25;;;;;;;12.00;4.03;;;14.20;63.20;;;;;;5075700;28;20053;-80
2023/05/27 06:52:50;;;;;;;9.88;3.88;;;14.50;63.80;;;;;;5075627;28;20035;-80
2023/05/27 06:55:18;;;;;;;8.90;3.35;;;14.70;63.10;;;;;;5075711;28;20028;-80
2023/05/27 06:57:43;;;;;;;10.20;4.07;;;14.90;62.20;;;;;;5074356;28;20016;-81
2023/05/27 07:00:09;;;;;;;9.48;3.50;;;15.10;62.40;;;;;;5054976;28;20025;-80
2023/05/27 07:02:35;;;;;;;11.38;3.50;;;15.20;62.00;;;;;;5091455;28;20024;-81
2023/05/27 07:05:00;;;;;;;10.20;3.88;;;15.00;62.60;;;;;;5067980;28;20081;-80
2023/05/27 07:07:26;;;;;;;12.00;3.90;;;15.30;62.70;;;;;;5058535;28;20036;-81
2023/05/27 07:09:52;;;;;;;7.72;3.60;;;15.40;62.10;;;;;;5054563;28;20039;-81
2023/05/27 07:12:18;;;;;;;9.93;3.40;;;15.50;59.70;;;;;;5054834;28;20474;-82
2023/05/27 07:14:43;;;;;;;9.65;3.72;;;15.70;59.30;;;;;;5054749;28;20063;-81
2023/05/27 07:17:09;;;;;;;10.40;3.63;;;15.60;57.90;;;;;;5046648;28;20063;-80
2023/05/27 07:19:35;;;;;;;7.25;3.15;;;15.60;55.30;;;;;;5072550;28;20020;-81
2023/05/27 07:22:00;;;;;;;10.32;4.28;;;15.40;55.00;;;;;;5054838;28;20383;-81
2023/05/27 07:24:26;;;;;;;8.65;3.35;;;15.20;53.30;;;;;;5073064;28;20024;-81
2023/05/27 07:26:52;;;;;;;12.40;4.63;;;15.10;52.90;;;;;;5072371;28;20039;-81
2023/05/27 07:29:18;;;;;;;9.40;4.88;;;14.90;54.00;;;;;;5054757;28;20024;-81
2023/05/27 07:31:45;;;;;;;8.23;3.25;;;14.90;55.20;;;;;;5054350;28;20378;-80
2023/05/27 07:34:10;;;;;;;10.20;3.00;;;14.90;55.70;;;;;;5046416;28;20354;-81
2023/05/27 07:36:36;;;;;;;10.23;3.63;;;15.00;57.50;;;;;;5046223;28;20131;-81
2023/05/27 07:39:01;;;;;;;14.77;3.83;;;15.10;57.90;;;;;;5072627;28;20413;-81
2023/05/27 07:41:29;;;;;;;14.70;4.45;;;15.20;57.80;;;;;;5048715;28;20028;-81
2023/05/27 07:43:55;;;;;;;7.75;3.33;;;15.40;58.60;;;;;;5054821;28;20449;-81
2023/05/27 07:46:21;;;;;;;9.00;4.40;;;15.50;58.60;;;;;;5053985;28;20036;-81
2023/05/27 07:48:47;;;;;;;10.38;3.83;;;15.40;57.60;;;;;;5069857;28;20351;-80
2023/05/27 07:51:13;;;;;;;10.45;3.38;;;15.40;57.10;;;;;;5052233;28;20036;-80
2023/05/27 07:53:38;;;;;;;12.70;4.18;;;15.40;56.10;;;;;;5071156;28;20036;-81
2023/05/27 07:56:04;;;;;;;6.20;3.67;;;15.10;55.70;;;;;;5071299;28;20069;-80
2023/05/27 07:58:30;;;;;;;13.32;3.45;;;15.20;54.70;;;;;;5051854;28;20562;-80
2023/05/27 08:00:55;;;;;;;9.80;3.28;;;15.40;55.00;;;;;;5070009;28;20055;-81
2023/05/27 08:03:21;;;;;;;8.80;3.45;;;15.50;55.60;;;;;;5070855;28;20028;-81
2023/05/27 08:05:47;;;;;;;8.00;3.30;;;15.60;56.30;;;;;;5054782;28;20367;-81
2023/05/27 08:08:13;;;;;;;7.95;2.95;;;15.80;56.00;;;;;;5046673;28;20043;-81
2023/05/27 08:10:39;;;;;;;11.18;3.45;;;15.50;54.80;;;;;;5074606;28;20559;-81
2023/05/27 08:13:04;;;;;;;11.52;4.00;;;15.70;55.70;;;;;;5059606;28;20043;-81
2023/05/27 08:15:30;;;;;;;13.35;3.97;;;15.80;55.40;;;;;;5055845;28;20021;-81
2023/05/27 08:17:56;;;;;;;8.55;2.80;;;15.60;55.00;;;;;;5056387;28;20024;-80
2023/05/27 08:20:21;;;;;;;10.90;3.30;;;15.90;55.40;;;;;;5058511;28;20079;-80
2023/05/27 08:22:47;;;;;;;9.68;4.05;;;16.10;55.20;;;;;;5074728;28;20029;-81
2023/05/27 08:25:13;;;;;;;12.85;4.20;;;15.80;55.40;;;;;;5056553;28;20556;-81
2023/05/27 08:27:44;;;;;;;11.02;4.72;;;15.80;55.60;;;;;;5074581;28;20091;-81
2023/05/27 08:30:11;;;;;;;8.00;3.28;;;15.80;54.40;;;;;;5057559;28;20020;-81
2023/05/27 08:32:37;;;;;;;10.02;4.72;;;15.50;54.10;;;;;;5074515;28;20051;-81
2023/05/27 08:35:03;;;;;;;11.23;4.03;;;15.70;54.50;;;;;;5056310;28;20020;-81
2023/05/27 08:37:29;;;;;;;14.50;3.75;;;15.80;54.40;;;;;;5056085;28;20098;-81
2023/05/27 08:39:54;;;;;;;9.20;3.08;;;15.90;54.60;;;;;;5074465;28;20048;-80
2023/05/27 08:42:21;;;;;;;8.63;3.42;;;15.80;52.60;;;;;;5074288;28;20524;-81
2023/05/27 08:44:46;;;;;;;7.65;2.80;;;16.00;50.90;;;;;;5057011;28;20025;-81
2023/05/27 08:47:13;;;;;;;7.90;3.15;;;16.00;51.10;;;;;;5057442;28;20509;-81
2023/05/27 08:49:39;;;;;;;8.55;2.88;;;15.90;50.90;;;;;;5056815;28;20688;-81
2023/05/27 08:52:06;;;;;;;10.05;3.63;;;16.30;51.40;;;;;;5075899;28;20112;-81
2023/05/27 08:54:33;;;;;;;11.52;3.25;;;16.40;51.00;;;;;;5075913;28;20024;-81
2023/05/27 08:57:00;;;;;;;7.30;3.03;;;16.40;50.20;;;;;;5057746;28;20025;-81
2023/05/27 08:59:26;;;;;;;8.13;2.92;;;16.60;49.40;;;;;;5057775;28;20030;-81
2023/05/27 09:01:52;;;;;;;9.82;3.33;;;16.60;49.10;;;;;;5075796;28;20032;-81
2023/05/27 09:04:17;;;;;;;7.40;2.67;;;16.60;47.20;;;;;;5076051;28;20028;-82
2023/05/27 09:06:43;;;;;;;7.63;3.03;;;16.50;46.80;;;;;;5057793;28;20033;-81
2023/05/27 09:09:12;;;;;;;4.72;2.75;;;16.60;47.40;;;;;;5070677;28;20051;-81
2023/05/27 09:11:40;;;;;;;7.28;2.92;;;16.70;44.60;;;;;;5077870;28;20111;-81
2023/05/27 09:14:05;;;;;;;6.30;2.75;;;16.40;43.50;;;;;;5096115;28;20099;-80
2023/05/27 09:16:31;;;;;;;5.90;2.60;;;16.50;46.50;;;;;;5077437;28;20131;-80
2023/05/27 09:18:57;;;;;;;4.88;2.63;;;16.60;43.40;;;;;;5057737;28;20017;-81
2023/05/27 09:21:26;;;;;;;4.78;2.38;;;16.50;43.20;;;;;;5056982;28;20055;-81
2023/05/27 09:23:56;;;;;;;6.60;3.20;;;16.50;42.40;;;;;;5057481;28;20428;-81
2023/05/27 09:26:23;;;;;;;6.18;2.90;;;16.50;41.30;;;;;;5057411;28;20433;-81
2023/05/27 09:28:48;;;;;;;8.38;2.95;;;16.50;44.00;;;;;;5057701;28;20024;-81
2023/05/27 09:31:14;;;;;;;6.00;2.65;;;16.90;45.20;;;;;;5075687;28;20020;-81
2023/05/27 09:33:40;;;;;;;7.32;2.97;;;17.00;41.40;;;;;;5057555;28;20469;-81
2023/05/27 09:36:08;;;;;;;7.13;3.22;;;16.80;44.60;;;;;;5057500;28;20012;-81
2023/05/27 09:38:35;;;;;;;8.25;3.03;;;16.90;43.60;;;;;;5075575;28;20466;-81
2023/05/27 09:41:02;;;;;;;7.43;3.15;;;17.30;44.40;;;;;;5057409;28;20028;-81
2023/05/27 09:43:29;;;;;;;7.65;3.13;;;17.20;43.30;;;;;;5057307;28;20017;-81
2023/05/27 09:46:01;;;;;;;5.68;2.65;;;17.30;43.90;;;;;;5075167;28;20441;-81
2023/05/27 09:48:28;;;;;;;16.60;5.07;;;17.00;39.90;;;;;;5075258;28;20051;-81
2023/05/27 09:50:56;;;;;;;7.28;2.90;;;16.80;41.20;;;;;;5057132;28;20020;-81
2023/05/27 09:53:23;;;;;;;6.85;3.20;;;17.00;44.00;;;;;;5057278;28;20032;-81
2023/05/27 09:55:49;;;;;;;7.18;3.60;;;16.80;45.50;;;;;;5057056;28;20139;-81
2023/05/27 09:58:15;;;;;;;6.72;3.00;;;16.80;45.20;;;;;;5056959;28;20079;-81
2023/05/27 10:00:44;;;;;;;4.65;3.03;;;16.80;45.00;;;;;;5057020;28;20028;-81
2023/05/27 10:03:10;;;;;;;7.15;3.20;;;17.10;45.30;;;;;;5056884;28;20042;-81
2023/05/27 10:05:36;;;;;;;9.75;3.83;;;17.40;45.30;;;;;;5074729;28;20119;-80
2023/05/27 10:08:03;;;;;;;7.63;3.75;;;17.20;45.50;;;;;;5056692;28;20028;-81
2023/05/27 10:10:28;;;;;;;5.50;3.40;;;17.30;44.30;;;;;;5091013;28;20047;-81
2023/05/27 10:12:55;;;;;;;6.03;3.33;;;17.60;46.20;;;;;;5093770;28;20531;-81
2023/05/27 10:15:29;;;;;;;8.60;3.38;;;17.70;45.40;;;;;;5095084;28;20032;-81
2023/05/27 10:18:00;;;;;;;9.55;3.15;;;18.00;46.40;;;;;;5094984;28;20025;-81
2023/05/27 10:20:42;;;;;;;4.78;3.28;;;17.70;45.00;;;;;;5091975;28;20012;-82
2023/05/27 10:23:15;;;;;;;9.63;3.63;;;17.60;44.30;;;;;;5092921;28;20110;-81
2023/05/27 10:25:47;;;;;;;5.90;3.85;;;17.70;43.30;;;;;;5092447;28;20032;-82
2023/05/27 10:28:35;;;;;;;8.13;3.40;;;17.70;41.40;;;;;;5093501;28;20020;-82
2023/05/27 10:31:08;;;;;;;5.32;2.88;;;18.00;43.80;;;;;;5093105;28;20066;-82
2023/05/27 10:33:39;;;;;;;5.88;3.25;;;17.60;45.40;;;;;;5094257;28;20080;-82
2023/05/27 10:36:25;;;;;;;8.00;3.28;;;17.60;45.70;;;;;;5093534;28;20024;-83
2023/05/27 10:39:03;;;;;;;5.53;3.13;;;17.90;44.80;;;;;;5094423;28;20024;-83
2023/05/27 10:41:37;;;;;;;13.18;4.13;;;17.70;44.90;;;;;;5094489;28;20024;-82
2023/05/27 10:44:03;;;;;;;8.10;3.63;;;17.70;45.60;;;;;;5092691;28;20024;-82
2023/05/27 10:46:39;;;;;;;4.45;2.75;;;17.50;45.60;;;;;;5094193;28;20036;-83
2023/05/27 10:49:16;;;;;;;7.97;3.17;;;17.80;46.10;;;;;;5093025;28;20474;-82
2023/05/27 10:51:48;;;;;;;5.90;3.28;;;18.00;45.90;;;;;;5092833;28;20016;-82
2023/05/27 10:54:18;;;;;;;10.75;3.10;;;17.80;46.40;;;;;;5093767;28;20028;-82
2023/05/27 10:56:50;;;;;;;5.97;2.90;;;17.80;47.10;;;;;;5093969;28;20020;-81
2023/05/27 10:59:25;;;;;;;7.18;2.95;;;17.70;46.20;;;;;;5092975;28;20466;-84
2023/05/27 11:01:54;;;;;;;8.40;3.15;;;17.80;47.00;;;;;;5083116;28;20020;-83
2023/05/27 11:04:21;;;;;;;5.82;3.60;;;17.80;45.40;;;;;;5085734;28;20078;-83
2023/05/27 11:07:19;;;;;;;4.20;2.83;;;18.20;46.90;;;;;;5092198;28;20043;-82
2023/05/27 11:09:47;;;;;;;5.50;2.83;;;17.70;42.30;;;;;;5077137;28;20054;-82
2023/05/27 11:12:21;;;;;;;7.35;3.00;;;17.80;43.10;;;;;;5091373;28;20392;-82
2023/05/27 11:14:49;;;;;;;8.05;2.95;;;18.00;43.60;;;;;;5084480;28;20048;-81
2023/05/27 11:17:15;;;;;;;6.30;2.65;;;18.30;42.80;;;;;;5083172;28;20050;-82
2023/05/27 11:19:41;;;;;;;4.50;2.17;;;18.10;45.60;;;;;;5088527;28;20052;-82
2023/05/27 11:22:10;;;;;;;6.00;2.65;;;17.60;44.60;;;;;;5081274;28;20024;-83
2023/05/27 11:24:36;;;;;;;5.97;3.70;;;17.60;46.40;;;;;;5079534;28;20027;-81
2023/05/27 11:27:09;;;;;;;6.05;2.95;;;18.00;48.10;;;;;;5081628;28;20028;-81
2023/05/27 11:29:36;;;;;;;9.02;3.25;;;17.80;46.90;;;;;;5083806;28;20520;-82
2023/05/27 11:32:02;;;;;;;7.68;3.13;;;17.70;47.50;;;;;;5085816;28;20051;-82
2023/05/27 11:34:27;;;;;;;5.65;3.13;;;18.10;46.70;;;;;;5093174;28;20048;-82
2023/05/27 11:36:53;;;;;;;6.30;2.67;;;18.40;42.70;;;;;;5091910;28;20470;-82
2023/05/27 11:39:19;;;;;;;5.07;2.70;;;18.60;41.60;;;;;;5093151;28;20077;-82
2023/05/27 11:41:52;;;;;;;5.15;2.55;;;18.50;41.40;;;;;;5088225;28;20477;-82
2023/05/27 11:44:20;;;;;;;4.05;2.53;;;18.50;40.20;;;;;;5080690;28;20020;-82
2023/05/27 11:46:47;;;;;;;3.83;2.53;;;18.70;41.90;;;;;;5081300;28;20032;-82
2023/05/27 11:49:14;;;;;;;5.32;2.55;;;18.20;40.90;;;;;;5081551;28;20512;-82
2023/05/27 11:51:42;;;;;;;5.70;2.85;;;18.30;41.30;;;;;;5085914;28;20028;-81
2023/05/27 11:54:32;;;;;;;5.95;2.88;;;18.30;42.70;;;;;;5088138;28;20114;-82
2023/05/27 11:56:58;;;;;;;6.18;2.28;;;18.00;43.10;;;;;;5082496;28;20093;-82
2023/05/27 11:59:25;;;;;;;5.53;2.05;;;18.00;44.60;;;;;;5079052;28;20023;-82
2023/05/27 12:01:55;;;;;;;5.13;2.83;;;18.20;44.50;;;;;;5086500;28;20032;-83
2023/05/27 12:04:21;;;;;;;5.60;1.92;;;18.40;43.10;;;;;;5092770;28;20020;-82
2023/05/27 12:06:47;;;;;;;7.30;2.55;;;18.60;43.00;;;;;;5086058;28;20466;-82
2023/05/27 12:09:13;;;;;;;7.85;2.50;;;18.50;43.20;;;;;;5081824;28;20433;-83
2023/05/27 12:11:39;;;;;;;3.30;1.90;;;18.50;41.30;;;;;;5073571;28;20505;-82
2023/05/27 12:14:19;;;;;;;4.53;2.50;;;18.70;41.20;;;;;;5072666;28;20028;-82
2023/05/27 12:16:45;;;;;;;2.70;2.50;;;18.80;41.50;;;;;;5072589;28;20035;-82
2023/05/27 12:19:11;;;;;;;7.05;2.50;;;18.90;43.30;;;;;;5072681;28;20029;-82
2023/05/27 12:21:38;;;;;;;6.32;1.98;;;19.00;44.70;;;;;;5071370;28;20056;-82
2023/05/27 12:24:03;;;;;;;4.57;2.33;;;18.90;43.30;;;;;;5070390;28;20033;-81
2023/05/27 12:26:29;;;;;;;4.15;2.08;;;18.90;43.80;;;;;;5069424;28;20505;-81
2023/05/27 12:28:56;;;;;;;3.45;2.20;;;18.60;42.80;;;;;;5071239;28;20021;-81
2023/05/27 12:31:22;;;;;;;4.05;2.00;;;18.70;43.00;;;;;;5070828;28;20540;-81
2023/05/27 12:33:48;;;;;;;4.85;2.35;;;18.80;41.70;;;;;;5051805;28;20486;-81
2023/05/27 12:36:14;;;;;;;3.00;1.90;;;18.90;42.80;;;;;;5051924;28;20024;-82
2023/05/27 12:38:40;;;;;;;4.35;2.13;;;18.70;41.30;;;;;;5069641;28;20031;-81
2023/05/27 12:41:06;;;;;;;5.35;2.17;;;18.70;40.60;;;;;;5072021;28;20100;-81
2023/05/27 12:43:31;;;;;;;2.75;1.60;;;18.90;40.40;;;;;;5072592;28;20055;-82